createdAt,value
2023-02-16T00:00:24.721Z,5.00
2023-02-16T00:03:19.013Z,4.26
2023-02-16T00:05:45.992Z,4.41
2023-02-16T00:08:12.998Z,6.08
2023-02-16T00:10:40.134Z,7.01
2023-02-16T00:13:47.251Z,6.08
2023-02-16T00:16:20.216Z,4.91
2023-02-16T00:18:47.622Z,4.26
2023-02-16T00:21:15.671Z,4.23
2023-02-16T00:23:42.499Z,5.87
2023-02-16T00:26:21.209Z,6.83
2023-02-16T00:28:59.235Z,5.81
2023-02-16T00:31:31.259Z,4.83
2023-02-16T00:33:59.623Z,4.17
2023-02-16T00:36:26.231Z,3.89
2023-02-16T00:38:53.102Z,5.28
2023-02-16T00:41:41.805Z,6.49
2023-02-16T00:44:39.698Z,5.57
2023-02-16T00:47:36.992Z,4.50
2023-02-16T00:50:23.588Z,3.80
2023-02-16T00:52:50.465Z,4.42
2023-02-16T00:55:25.170Z,6.18
2023-02-16T00:58:01.697Z,6.76
2023-02-16T01:00:35.741Z,5.61
2023-02-16T01:03:07.501Z,4.67
2023-02-16T01:05:34.593Z,4.01
2023-02-16T01:08:20.466Z,4.25
2023-02-16T01:11:10.901Z,6.11
2023-02-16T01:13:48.891Z,6.79
2023-02-16T01:16:22.767Z,5.62
2023-02-16T01:18:50.520Z,4.69
2023-02-16T01:21:17.095Z,4.29
2023-02-16T01:23:44.000Z,5.56
2023-02-16T01:26:15.206Z,7.11
2023-02-16T01:28:42.695Z,7.60
2023-02-16T01:31:11.685Z,6.47
2023-02-16T01:33:38.514Z,5.46
2023-02-16T01:36:05.740Z,4.75
2023-02-16T01:38:32.513Z,4.21
2023-02-16T01:41:25.383Z,4.38
2023-02-16T01:44:01.198Z,6.33
2023-02-16T01:46:44.696Z,6.68
2023-02-16T01:49:16.704Z,5.50
2023-02-16T01:52:13.863Z,4.65
2023-02-16T01:54:48.100Z,3.96
2023-02-16T01:57:33.316Z,4.02
2023-02-16T02:00:11.799Z,5.86
2023-02-16T02:02:49.997Z,6.69
2023-02-16T02:05:35.347Z,5.60
2023-02-16T02:08:38.067Z,4.59
2023-02-16T02:11:32.553Z,3.84
2023-02-16T02:14:10.510Z,4.15
2023-02-16T02:16:37.077Z,6.02
2023-02-16T02:19:03.745Z,6.69
2023-02-16T02:22:18.075Z,5.66
2023-02-16T02:25:25.089Z,4.48
2023-02-16T02:28:14.892Z,4.12
2023-02-16T02:30:54.547Z,5.88
2023-02-16T02:33:58.779Z,6.81
2023-02-16T02:36:41.585Z,5.55
2023-02-16T02:39:36.820Z,4.59
2023-02-16T02:42:21.855Z,4.48
2023-02-16T02:44:57.598Z,6.33
2023-02-16T02:47:40.705Z,7.06
2023-02-16T02:51:08.852Z,5.89
2023-02-16T02:54:18.203Z,4.69
2023-02-16T02:57:27.110Z,4.93
2023-02-16T03:00:40.735Z,7.04
2023-02-16T03:03:15.499Z,6.49
2023-02-16T03:05:50.227Z,5.41
2023-02-16T03:08:20.527Z,4.65
2023-02-16T03:11:16.878Z,4.53
2023-02-16T03:13:48.454Z,6.41
2023-02-16T03:16:34.817Z,7.25
2023-02-16T03:19:21.369Z,6.11
2023-02-16T03:22:06.819Z,5.07
2023-02-16T03:24:51.896Z,4.38
2023-02-16T03:27:44.024Z,4.88
2023-02-16T03:30:12.340Z,6.84
2023-02-16T03:32:39.180Z,6.83
2023-02-16T03:35:06.395Z,5.72
2023-02-16T03:37:33.274Z,4.89
2023-02-16T03:40:18.259Z,4.30
2023-02-16T03:42:49.935Z,4.82
2023-02-16T03:45:18.171Z,6.71
2023-02-16T03:47:44.730Z,7.13
2023-02-16T03:50:11.426Z,6.02
2023-02-16T03:52:37.940Z,5.12
2023-02-16T03:55:04.933Z,4.49
2023-02-16T03:57:31.417Z,4.49
2023-02-16T03:59:59.331Z,6.09
2023-02-16T04:02:28.414Z,7.10
2023-02-16T04:04:55.045Z,6.19
2023-02-16T04:07:21.635Z,5.24
2023-02-16T04:09:48.271Z,4.57
2023-02-16T04:12:33.686Z,4.07
2023-02-16T04:15:00.258Z,4.56
2023-02-16T04:17:26.833Z,6.22
2023-02-16T04:19:53.521Z,6.97
2023-02-16T04:22:20.192Z,6.01
2023-02-16T04:24:46.742Z,5.07
2023-02-16T04:27:13.392Z,4.42
2023-02-16T04:29:39.957Z,4.32
2023-02-16T04:32:06.561Z,5.83
2023-02-16T04:34:33.341Z,6.87
2023-02-16T04:37:01.652Z,6.06
2023-02-16T04:39:28.347Z,5.11
2023-02-16T04:41:54.909Z,4.45
2023-02-16T04:44:21.455Z,4.36
2023-02-16T04:46:48.111Z,5.91
2023-02-16T04:49:14.881Z,6.92
2023-02-16T04:51:41.439Z,6.05
2023-02-16T04:54:08.144Z,5.11
2023-02-16T04:56:34.864Z,4.44
2023-02-16T04:59:01.368Z,4.41
2023-02-16T05:01:28.257Z,5.99
2023-02-16T05:03:55.132Z,6.95
2023-02-16T05:06:21.936Z,6.06
2023-02-16T05:08:48.484Z,5.15
2023-02-16T05:11:33.525Z,4.47
2023-02-16T05:14:18.914Z,4.48
2023-02-16T05:16:45.801Z,6.32
2023-02-16T05:19:12.722Z,7.08
2023-02-16T05:21:39.330Z,6.11
2023-02-16T05:24:11.118Z,5.17
2023-02-16T05:26:41.299Z,4.49
2023-02-16T05:29:08.098Z,4.17
2023-02-16T05:31:34.795Z,5.52
2023-02-16T05:34:02.195Z,6.77
2023-02-16T05:36:29.111Z,6.06
2023-02-16T05:38:56.455Z,5.10
2023-02-16T05:41:22.980Z,4.42
2023-02-16T05:43:58.687Z,4.35
2023-02-16T05:46:26.673Z,5.99
2023-02-16T05:48:53.624Z,6.94
2023-02-16T05:51:20.728Z,6.03
2023-02-16T05:53:47.286Z,5.09
2023-02-16T05:56:14.512Z,4.41
2023-02-16T05:58:41.071Z,4.30
2023-02-16T06:01:07.586Z,5.82
2023-02-16T06:03:35.238Z,6.85
2023-02-16T06:06:02.872Z,5.99
2023-02-16T06:08:30.603Z,5.03
2023-02-16T06:10:57.578Z,4.37
2023-02-16T06:13:24.933Z,4.30
2023-02-16T06:15:55.198Z,5.91
2023-02-16T06:18:25.431Z,6.93
2023-02-16T06:21:09.036Z,6.00
2023-02-16T06:23:46.885Z,4.92
2023-02-16T06:26:14.317Z,4.29
2023-02-16T06:28:41.065Z,4.39
2023-02-16T06:31:07.891Z,6.11
2023-02-16T06:33:34.840Z,7.13
2023-02-16T06:36:01.492Z,6.18
2023-02-16T06:38:28.044Z,5.22
2023-02-16T06:40:54.736Z,4.54
2023-02-16T06:43:21.407Z,4.46
2023-02-16T06:45:48.676Z,6.12
2023-02-16T06:48:15.181Z,7.19
2023-02-16T06:50:41.713Z,6.31
2023-02-16T06:53:08.338Z,5.36
2023-02-16T06:55:36.078Z,4.70
2023-02-16T06:58:03.835Z,4.57
2023-02-16T07:00:31.324Z,6.19
2023-02-16T07:02:57.988Z,7.33
2023-02-16T07:05:25.275Z,6.48
2023-02-16T07:07:52.358Z,5.56
2023-02-16T07:10:19.741Z,4.89
2023-02-16T07:12:47.055Z,4.89
2023-02-16T07:15:14.095Z,6.57
2023-02-16T07:17:40.639Z,7.67
2023-02-16T07:20:08.304Z,6.78
2023-02-16T07:22:34.960Z,5.84
2023-02-16T07:25:01.687Z,5.20
2023-02-16T07:27:28.316Z,5.15
2023-02-16T07:29:54.965Z,6.83
2023-02-16T07:32:21.652Z,7.94
2023-02-16T07:34:48.929Z,7.09
2023-02-16T07:37:15.477Z,6.17
2023-02-16T07:39:42.024Z,5.54
2023-02-16T07:42:08.610Z,5.56
2023-02-16T07:44:35.233Z,7.30
2023-02-16T07:47:01.770Z,8.21
2023-02-16T07:49:28.376Z,7.31
2023-02-16T07:51:54.949Z,6.42
2023-02-16T07:54:21.485Z,5.82
2023-02-16T07:56:48.005Z,5.97
2023-02-16T07:59:16.322Z,7.76
2023-02-16T08:01:42.957Z,8.50
2023-02-16T08:04:09.522Z,7.54
2023-02-16T08:06:36.208Z,6.71
2023-02-16T08:09:03.320Z,6.16
2023-02-16T08:11:29.985Z,6.25
2023-02-16T08:13:59.578Z,8.00
2023-02-16T08:16:28.255Z,8.60
2023-02-16T08:18:56.653Z,7.70
2023-02-16T08:21:27.206Z,6.96
2023-02-16T08:23:56.734Z,6.47
2023-02-16T08:26:29.260Z,6.37
2023-02-16T08:28:57.591Z,7.98
2023-02-16T08:31:29.248Z,9.11
2023-02-16T08:33:58.696Z,8.35
2023-02-16T08:36:29.056Z,7.57
2023-02-16T08:38:55.622Z,7.06
2023-02-16T08:41:26.173Z,6.71
2023-02-16T08:43:54.267Z,6.90
2023-02-16T08:46:22.269Z,8.67
2023-02-16T08:48:48.972Z,9.68
2023-02-16T08:51:18.873Z,8.85
2023-02-16T08:53:46.219Z,8.06
2023-02-16T08:56:14.145Z,7.56
2023-02-16T08:58:40.850Z,7.22
2023-02-16T09:01:08.097Z,6.96
2023-02-16T09:03:36.627Z,6.75
2023-02-16T09:06:05.370Z,7.22
2023-02-16T09:08:33.338Z,9.14
2023-02-16T09:11:14.860Z,9.60
2023-02-16T09:13:42.759Z,8.79
2023-02-16T09:16:12.340Z,8.23
2023-02-16T09:18:39.662Z,7.91
2023-02-16T09:21:10.838Z,7.69
2023-02-16T09:23:39.019Z,7.53
2023-02-16T09:26:09.122Z,7.42
2023-02-16T09:28:40.181Z,7.34
2023-02-16T09:31:16.452Z,7.29
2023-02-16T09:33:43.533Z,7.23
2023-02-16T09:36:11.701Z,7.18
2023-02-16T09:38:39.008Z,7.12
2023-02-16T09:41:30.240Z,7.08
2023-02-16T09:44:54.116Z,7.08
2023-02-16T09:47:26.984Z,8.30
2023-02-16T09:49:56.229Z,9.90
2023-02-16T09:53:13.201Z,9.59
2023-02-16T09:55:59.035Z,9.10
2023-02-16T09:58:33.099Z,8.87
2023-02-16T10:01:17.126Z,8.73
2023-02-16T10:04:27.737Z,8.64
2023-02-16T10:07:26.347Z,8.57
2023-02-16T10:09:54.609Z,8.53
2023-02-16T10:12:28.468Z,8.50
2023-02-16T10:15:15.675Z,8.48
2023-02-16T10:17:51.948Z,8.48
2023-02-16T10:20:45.736Z,8.50
2023-02-16T10:23:48.054Z,8.53
2023-02-16T10:26:25.839Z,8.56
2023-02-16T10:28:56.772Z,8.54
2023-02-16T10:31:25.675Z,8.55
2023-02-16T10:34:42.368Z,8.61
2023-02-16T10:38:07.604Z,8.76
2023-02-16T10:41:00.683Z,8.93
2023-02-16T10:43:39.366Z,9.06
2023-02-16T10:46:06.495Z,9.19
2023-02-16T10:48:33.435Z,9.32
2023-02-16T10:51:08.701Z,9.45
2023-02-16T10:53:47.780Z,9.59
2023-02-16T10:56:32.379Z,9.73
2023-02-16T10:59:00.139Z,9.89
2023-02-16T11:01:39.798Z,10.04
2023-02-16T11:04:29.320Z,10.20
2023-02-16T11:07:16.315Z,10.37
2023-02-16T11:09:46.583Z,10.52
2023-02-16T11:12:33.633Z,10.66
2023-02-16T11:15:18.126Z,10.87
2023-02-16T11:18:07.419Z,11.11
2023-02-16T11:20:45.944Z,11.32
2023-02-16T11:23:28.597Z,11.46
2023-02-16T11:26:08.188Z,11.55
2023-02-16T11:28:42.194Z,11.64
2023-02-16T11:31:23.899Z,11.73
2023-02-16T11:34:06.321Z,11.84
2023-02-16T11:36:46.744Z,11.93
2023-02-16T11:39:13.432Z,12.03
2023-02-16T11:42:08.209Z,12.09
2023-02-16T11:44:37.720Z,12.16
2023-02-16T11:47:22.163Z,12.25
2023-02-16T11:50:26.416Z,12.36
2023-02-16T11:53:14.315Z,12.45
2023-02-16T11:55:45.153Z,12.52
2023-02-16T11:58:24.987Z,12.60
2023-02-16T12:02:04.656Z,12.70
2023-02-16T12:05:18.656Z,12.87
2023-02-16T12:08:05.851Z,13.01
2023-02-16T12:10:39.368Z,13.10
2023-02-16T12:13:28.604Z,13.17
2023-02-16T12:16:24.416Z,13.21
2023-02-16T12:19:44.875Z,13.22
2023-02-16T12:22:14.155Z,13.13
2023-02-16T12:25:19.340Z,13.06
2023-02-16T12:28:09.119Z,12.92
2023-02-16T12:30:59.777Z,12.81
2023-02-16T12:33:53.268Z,12.71
2023-02-16T12:36:52.713Z,12.69
2023-02-16T12:39:40.706Z,12.68
2023-02-16T12:42:37.978Z,12.60
2023-02-16T12:45:20.897Z,12.52
2023-02-16T12:48:12.340Z,12.47
2023-02-16T12:50:41.577Z,12.49
2023-02-16T12:53:48.824Z,12.51
2023-02-16T12:56:38.505Z,12.57
2023-02-16T12:59:46.434Z,12.61
2023-02-16T13:02:31.558Z,12.64
2023-02-16T13:05:21.602Z,12.67
2023-02-16T13:07:53.653Z,12.71
2023-02-16T13:10:29.738Z,12.76
2023-02-16T13:13:12.176Z,12.77
2023-02-16T13:15:47.856Z,12.77
2023-02-16T13:18:20.605Z,12.75
2023-02-16T13:20:53.225Z,12.73
2023-02-16T13:23:19.717Z,12.71
2023-02-16T13:26:23.649Z,12.69
2023-02-16T13:29:25.642Z,12.65
2023-02-16T13:32:19.209Z,12.62
2023-02-16T13:35:16.550Z,12.58
2023-02-16T13:38:20.797Z,12.52
2023-02-16T13:41:24.310Z,12.46
2023-02-16T13:43:55.549Z,12.40
2023-02-16T13:46:42.775Z,12.34
2023-02-16T13:49:41.679Z,12.27
2023-02-16T13:52:34.770Z,12.18
2023-02-16T13:55:05.473Z,12.11
2023-02-16T13:57:50.682Z,12.04
2023-02-16T14:00:30.868Z,11.94
2023-02-16T14:03:37.422Z,11.85
2023-02-16T14:06:26.365Z,11.73
2023-02-16T14:09:11.642Z,11.63
2023-02-16T14:11:53.333Z,11.52
2023-02-16T14:14:45.835Z,11.42
2023-02-16T14:17:21.951Z,11.32
2023-02-16T14:20:04.639Z,11.22
2023-02-16T14:22:43.241Z,11.13
2023-02-16T14:25:21.924Z,11.05
2023-02-16T14:28:04.620Z,10.95
2023-02-16T14:30:38.940Z,10.86
2023-02-16T14:33:11.649Z,10.79
2023-02-16T14:35:40.497Z,10.71
2023-02-16T14:38:42.336Z,10.65
2023-02-16T14:41:38.450Z,10.56
2023-02-16T14:44:05.408Z,10.47
2023-02-16T14:46:56.615Z,10.40
2023-02-16T14:49:56.846Z,10.33
2023-02-16T14:52:50.758Z,10.24
2023-02-16T14:55:38.979Z,10.23
2023-02-16T14:58:28.623Z,11.76
2023-02-16T15:01:16.362Z,13.16
2023-02-16T15:03:53.004Z,12.47
2023-02-16T15:06:36.528Z,11.86
2023-02-16T15:09:24.400Z,11.46
2023-02-16T15:12:21.090Z,11.18
2023-02-16T15:14:57.370Z,10.97
2023-02-16T15:17:48.967Z,10.80
2023-02-16T15:20:34.807Z,10.65
2023-02-16T15:23:18.696Z,10.49
2023-02-16T15:26:03.722Z,10.35
2023-02-16T15:28:37.212Z,10.21
2023-02-16T15:31:23.946Z,10.08
2023-02-16T15:34:00.727Z,9.95
2023-02-16T15:36:43.311Z,10.19
2023-02-16T15:39:41.255Z,12.04
2023-02-16T15:42:21.508Z,13.04
2023-02-16T15:44:48.218Z,12.18
2023-02-16T15:47:24.906Z,11.49
2023-02-16T15:49:53.339Z,11.00
2023-02-16T15:52:33.354Z,10.67
2023-02-16T15:55:02.665Z,10.38
2023-02-16T15:57:37.433Z,10.15
2023-02-16T16:00:22.902Z,9.92
2023-02-16T16:02:53.144Z,9.71
2023-02-16T16:05:41.556Z,9.92
2023-02-16T16:08:13.807Z,11.86
2023-02-16T16:10:41.509Z,12.84
2023-02-16T16:13:11.608Z,12.01
2023-02-16T16:15:44.477Z,11.20
2023-02-16T16:19:05.467Z,10.63
2023-02-16T16:21:38.564Z,10.13
2023-02-16T16:24:11.311Z,9.84
2023-02-16T16:26:52.730Z,9.58
2023-02-16T16:29:38.338Z,9.34
2023-02-16T16:32:06.842Z,9.85
2023-02-16T16:34:38.597Z,11.59
2023-02-16T16:37:27.582Z,12.13
2023-02-16T16:40:24.881Z,11.08
2023-02-16T16:43:03.994Z,10.23
2023-02-16T16:45:41.666Z,9.72
2023-02-16T16:48:30.334Z,9.78
2023-02-16T16:51:20.563Z,11.61
2023-02-16T16:53:51.338Z,12.34
2023-02-16T16:56:18.500Z,11.36
2023-02-16T16:58:53.265Z,10.54
2023-02-16T17:01:20.982Z,9.95
2023-02-16T17:03:47.700Z,9.54
2023-02-16T17:06:14.490Z,9.19
2023-02-16T17:08:41.365Z,9.59
2023-02-16T17:11:16.403Z,11.29
2023-02-16T17:13:43.110Z,12.15
2023-02-16T17:16:17.063Z,11.22
2023-02-16T17:18:43.600Z,10.32
2023-02-16T17:21:13.198Z,9.71
2023-02-16T17:23:45.226Z,9.27
2023-02-16T17:26:17.245Z,9.49
2023-02-16T17:28:44.026Z,11.20
2023-02-16T17:31:10.766Z,12.14
2023-02-16T17:33:37.463Z,11.23
2023-02-16T17:36:06.857Z,10.29
2023-02-16T17:38:33.855Z,9.64
2023-02-16T17:41:00.588Z,9.16
2023-02-16T17:43:27.849Z,9.19
2023-02-16T17:45:56.470Z,10.80
2023-02-16T17:48:29.758Z,11.77
2023-02-16T17:50:57.489Z,10.87
2023-02-16T17:53:25.930Z,9.98
2023-02-16T17:55:55.720Z,9.35
2023-02-16T17:58:25.255Z,8.90
2023-02-16T18:00:52.787Z,9.71
2023-02-16T18:03:21.095Z,11.45
2023-02-16T18:05:52.549Z,11.78
2023-02-16T18:08:22.091Z,10.73
2023-02-16T18:10:53.989Z,9.87
2023-02-16T18:13:22.858Z,9.27
2023-02-16T18:15:49.690Z,8.84
2023-02-16T18:18:17.685Z,9.26
2023-02-16T18:20:44.862Z,11.02
2023-02-16T18:23:12.270Z,11.92
2023-02-16T18:25:41.147Z,10.99
2023-02-16T18:28:22.949Z,10.06
2023-02-16T18:30:49.957Z,9.41
2023-02-16T18:33:20.404Z,8.96
2023-02-16T18:35:50.280Z,9.08
2023-02-16T18:38:18.899Z,10.79
2023-02-16T18:40:49.267Z,11.79
2023-02-16T18:43:16.003Z,10.91
2023-02-16T18:45:43.011Z,10.03
2023-02-16T18:48:10.001Z,9.42
2023-02-16T18:50:36.694Z,8.97
2023-02-16T18:53:03.585Z,8.82
2023-02-16T18:55:33.497Z,10.23
2023-02-16T18:58:02.413Z,11.43
2023-02-16T19:00:29.388Z,10.71
2023-02-16T19:02:56.346Z,9.86
2023-02-16T19:05:23.457Z,9.28
2023-02-16T19:07:50.364Z,8.85
2023-02-16T19:10:18.352Z,8.51
2023-02-16T19:12:46.512Z,8.77
2023-02-16T19:15:13.364Z,10.55
2023-02-16T19:17:40.071Z,11.53
2023-02-16T19:20:09.234Z,10.69
2023-02-16T19:22:36.791Z,9.83
2023-02-16T19:25:05.604Z,9.25
2023-02-16T19:27:32.450Z,8.83
2023-02-16T19:29:59.336Z,8.50
2023-02-16T19:32:26.165Z,8.58
2023-02-16T19:34:53.772Z,10.23
2023-02-16T19:37:21.015Z,11.37
2023-02-16T19:39:47.787Z,10.59
2023-02-16T19:42:14.746Z,9.78
2023-02-16T19:44:41.521Z,9.22
2023-02-16T19:47:08.522Z,8.81
2023-02-16T19:49:36.537Z,8.51
2023-02-16T19:52:04.338Z,8.24
2023-02-16T19:54:35.249Z,8.52
2023-02-16T19:57:03.155Z,10.36
2023-02-16T19:59:31.896Z,11.41
2023-02-16T20:01:58.796Z,10.59
2023-02-16T20:04:26.112Z,9.78
2023-02-16T20:06:53.954Z,9.22
2023-02-16T20:09:21.832Z,8.85
2023-02-16T20:11:49.282Z,8.55
2023-02-16T20:14:15.939Z,8.65
2023-02-16T20:16:43.232Z,10.36
2023-02-16T20:21:56.181Z,10.66
2023-02-16T20:24:22.901Z,9.87
2023-02-16T20:26:51.379Z,9.34
2023-02-16T20:29:18.176Z,8.95
2023-02-16T20:31:52.414Z,8.65
2023-02-16T20:34:20.494Z,8.39
2023-02-16T20:36:47.538Z,8.72
2023-02-16T20:39:14.755Z,10.53
2023-02-16T20:41:41.558Z,11.55
2023-02-16T20:44:09.108Z,10.76
2023-02-16T20:46:37.840Z,9.96
2023-02-16T20:49:04.777Z,9.41
2023-02-16T20:51:31.470Z,9.02
2023-02-16T20:54:00.037Z,8.72
2023-02-16T20:56:27.870Z,8.48
2023-02-16T20:58:56.270Z,8.73
2023-02-16T21:01:29.276Z,10.49
2023-02-16T21:03:57.918Z,11.57
2023-02-16T21:06:25.472Z,10.76
2023-02-16T21:08:52.385Z,9.97
2023-02-16T21:11:20.010Z,9.44
2023-02-16T21:13:47.073Z,9.06
2023-02-16T21:16:14.309Z,8.78
2023-02-16T21:18:41.892Z,8.55
2023-02-16T21:21:14.851Z,9.20
2023-02-16T21:23:48.967Z,11.11
2023-02-16T21:26:17.721Z,11.65
2023-02-16T21:28:44.789Z,10.71
2023-02-16T21:31:15.306Z,9.97
2023-02-16T21:33:42.397Z,9.46
2023-02-16T21:36:13.939Z,9.10
2023-02-16T21:38:41.507Z,8.82
2023-02-16T21:41:24.092Z,9.03
2023-02-16T21:44:08.515Z,10.96
2023-02-16T21:46:44.556Z,11.94
2023-02-16T21:49:18.546Z,11.01
2023-02-16T21:51:47.126Z,10.18
2023-02-16T21:54:17.158Z,9.65
2023-02-16T21:56:52.395Z,9.27
2023-02-16T21:59:22.095Z,8.96
2023-02-16T22:01:51.172Z,9.05
2023-02-16T22:04:21.898Z,10.73
2023-02-16T22:06:50.385Z,11.75
2023-02-16T22:09:21.497Z,10.93
2023-02-16T22:11:49.903Z,10.13
2023-02-16T22:14:17.386Z,9.58
2023-02-16T22:16:46.544Z,9.19
2023-02-16T22:19:15.788Z,8.89
2023-02-16T22:21:44.641Z,9.56
2023-02-16T22:24:13.274Z,11.39
2023-02-16T22:26:40.849Z,11.62
2023-02-16T22:29:08.307Z,10.67
2023-02-16T22:31:35.847Z,9.94
2023-02-16T22:34:12.749Z,9.44
2023-02-16T22:36:40.361Z,9.06
2023-02-16T22:39:08.350Z,8.88
2023-02-16T22:41:35.418Z,10.21
2023-02-16T22:44:02.245Z,11.51
2023-02-16T22:46:30.055Z,10.85
2023-02-16T22:48:58.291Z,10.03
2023-02-16T22:51:28.533Z,9.47
2023-02-16T22:53:57.581Z,9.05
2023-02-16T22:56:26.227Z,9.25
2023-02-16T22:58:56.394Z,11.00
2023-02-16T23:01:26.686Z,11.95
2023-02-16T23:03:56.822Z,11.07
2023-02-16T23:06:30.464Z,10.20
2023-02-16T23:09:04.667Z,9.61
2023-02-16T23:11:32.350Z,9.17
2023-02-16T23:13:59.015Z,9.35
2023-02-16T23:16:27.175Z,11.08
2023-02-16T23:18:55.809Z,12.03
2023-02-16T23:21:27.636Z,11.17
2023-02-16T23:23:54.949Z,10.30
2023-02-16T23:26:24.909Z,9.70
2023-02-16T23:28:53.876Z,9.29
2023-02-16T23:31:21.546Z,9.39
2023-02-16T23:33:49.300Z,11.09
2023-02-16T23:36:16.416Z,12.05
2023-02-16T23:38:43.155Z,11.20
2023-02-16T23:41:14.622Z,10.35
2023-02-16T23:43:41.937Z,9.74
2023-02-16T23:46:09.612Z,9.30
2023-02-16T23:48:37.591Z,9.36
2023-02-16T23:51:04.398Z,11.02
2023-02-16T23:53:30.967Z,12.02
2023-02-16T23:56:04.783Z,11.19
2023-02-16T23:58:40.830Z,10.28
